Time;durP1;ratioP1;P1;durP2;ratioP2;P2;SDS_P1;SDS_P2;PMS_P1;PMS_P2;Temp;Humidity;BMP_temperature;BMP_pressure;BME280_temperature;BME280_humidity;BME280_pressure;Samples;Min_cycle;Max_cycle;Signal;HPM_P1;HPM_P2
2023/12/16 00:02:06;;;;;;;19.38;5.18;;;11.30;54.60;;;;;;4966780;28;20051;-37
2023/12/16 00:04:33;;;;;;;20.02;5.53;;;11.30;54.70;;;;;;4968468;28;20519;-37
2023/12/16 00:07:02;;;;;;;25.15;5.72;;;11.30;54.70;;;;;;4966120;28;20046;-37
2023/12/16 00:09:29;;;;;;;23.42;5.97;;;11.30;54.80;;;;;;4966222;28;20055;-36
2023/12/16 00:11:56;;;;;;;18.95;5.40;;;11.30;54.90;;;;;;4968452;28;20059;-37
2023/12/16 00:14:23;;;;;;;15.32;4.50;;;11.30;54.80;;;;;;4965281;28;20083;-38
2023/12/16 00:16:51;;;;;;;23.88;4.78;;;11.30;54.90;;;;;;4967369;28;20050;-36
2023/12/16 00:19:18;;;;;;;26.88;5.32;;;11.20;54.90;;;;;;4966871;28;20425;-36
2023/12/16 00:21:46;;;;;;;24.10;5.28;;;11.20;54.80;;;;;;4967553;28;20058;-36
2023/12/16 00:24:15;;;;;;;18.00;4.50;;;11.20;54.80;;;;;;4964028;28;20063;-37
2023/12/16 00:26:42;;;;;;;24.60;6.35;;;11.20;54.80;;;;;;4967136;28;20414;-37
2023/12/16 00:29:09;;;;;;;23.90;4.90;;;11.20;54.80;;;;;;4964037;28;20047;-36
2023/12/16 00:31:36;;;;;;;17.27;4.90;;;11.20;54.80;;;;;;4966217;28;20399;-36
2023/12/16 00:34:04;;;;;;;20.25;5.00;;;11.20;54.60;;;;;;4966294;28;20062;-36
2023/12/16 00:36:31;;;;;;;16.25;4.07;;;11.20;54.60;;;;;;4965881;28;20050;-37
2023/12/16 00:38:59;;;;;;;13.75;4.53;;;11.20;54.60;;;;;;4969242;28;20043;-37
2023/12/16 00:41:28;;;;;;;16.05;4.38;;;11.20;54.60;;;;;;4968298;28;20055;-36
2023/12/16 00:43:55;;;;;;;19.95;5.70;;;11.20;54.50;;;;;;4966383;28;20430;-36
2023/12/16 00:46:22;;;;;;;27.88;7.00;;;11.20;54.30;;;;;;4965566;28;20055;-37
2023/12/16 00:48:49;;;;;;;24.60;6.07;;;11.20;54.40;;;;;;4968383;28;20495;-36
2023/12/16 00:51:16;;;;;;;22.73;5.22;;;11.20;54.20;;;;;;4967907;28;20046;-36
2023/12/16 00:53:44;;;;;;;20.95;6.13;;;11.20;54.20;;;;;;4967114;28;20059;-37
2023/12/16 00:56:11;;;;;;;22.15;5.63;;;11.20;54.10;;;;;;4966694;28;20047;-36
2023/12/16 00:58:39;;;;;;;25.50;5.45;;;11.20;54.10;;;;;;4965821;28;20051;-48
2023/12/16 01:01:07;;;;;;;22.85;5.22;;;11.20;54.10;;;;;;4966626;28;20074;-44
2023/12/16 01:03:37;;;;;;;17.98;4.40;;;11.20;54.10;;;;;;4967629;28;20058;-48
2023/12/16 01:06:05;;;;;;;13.07;3.88;;;11.20;54.00;;;;;;4961703;28;20078;-48
2023/12/16 01:08:33;;;;;;;18.48;4.10;;;11.20;53.80;;;;;;4967647;28;20062;-47
2023/12/16 01:11:00;;;;;;;21.80;4.50;;;11.20;53.80;;;;;;4966928;28;20062;-46
2023/12/16 01:13:27;;;;;;;18.95;3.88;;;11.20;53.70;;;;;;4964024;28;20066;-47
2023/12/16 01:15:56;;;;;;;15.05;3.92;;;11.20;53.70;;;;;;4966964;28;20514;-47
2023/12/16 01:18:24;;;;;;;17.50;3.85;;;11.30;53.60;;;;;;4967526;28;20078;-40
2023/12/16 01:20:51;;;;;;;20.80;4.35;;;11.20;53.30;;;;;;4966387;28;20459;-49
2023/12/16 01:23:18;;;;;;;21.08;3.90;;;11.20;53.30;;;;;;4965282;28;20055;-48
2023/12/16 01:25:46;;;;;;;18.75;4.05;;;11.20;53.30;;;;;;4965648;28;20061;-49
2023/12/16 01:28:13;;;;;;;20.75;4.53;;;11.20;53.30;;;;;;4964355;28;20059;-50
2023/12/16 01:30:40;;;;;;;18.75;4.18;;;11.20;53.30;;;;;;4964641;28;20051;-44
2023/12/16 01:33:09;;;;;;;18.92;3.70;;;11.20;53.20;;;;;;4964414;28;20047;-48
2023/12/16 01:35:36;;;;;;;16.67;3.72;;;11.30;53.20;;;;;;4966480;28;20054;-46
2023/12/16 01:38:03;;;;;;;12.88;2.92;;;11.30;53.10;;;;;;4960221;28;20054;-44
2023/12/16 01:40:30;;;;;;;18.15;3.38;;;11.20;52.90;;;;;;4962652;28;20494;-46
2023/12/16 01:42:58;;;;;;;12.20;2.75;;;11.30;52.90;;;;;;4961791;28;20054;-49
2023/12/16 01:45:25;;;;;;;15.65;3.17;;;11.20;52.90;;;;;;4965706;28;20514;-49
2023/12/16 01:47:52;;;;;;;21.45;3.55;;;11.30;52.90;;;;;;4963827;28;20055;-45
2023/12/16 01:50:21;;;;;;;19.48;4.18;;;11.30;53.00;;;;;;4966477;28;20135;-50
2023/12/16 01:52:47;;;;;;;15.43;3.38;;;11.30;52.90;;;;;;4965318;28;20542;-47
2023/12/16 01:55:15;;;;;;;14.38;2.92;;;11.30;52.80;;;;;;4963074;28;20054;-50
2023/12/16 01:57:44;;;;;;;16.70;3.08;;;11.30;52.80;;;;;;4964208;28;20473;-46
2023/12/16 02:00:12;;;;;;;13.60;3.40;;;11.30;52.70;;;;;;4965682;28;20051;-47
2023/12/16 02:02:40;;;;;;;16.20;3.35;;;11.30;52.70;;;;;;4965041;28;20494;-50
2023/12/16 02:05:09;;;;;;;10.63;2.75;;;11.30;52.70;;;;;;4963248;28;20065;-49
2023/12/16 02:07:37;;;;;;;13.68;2.88;;;11.30;52.80;;;;;;4964004;28;20051;-48
2023/12/16 02:10:05;;;;;;;13.00;2.80;;;11.30;52.70;;;;;;4965526;28;20062;-37
2023/12/16 02:12:34;;;;;;;13.15;3.20;;;11.30;52.60;;;;;;4965109;28;20059;-37
2023/12/16 02:15:01;;;;;;;13.70;3.25;;;11.30;52.60;;;;;;4964358;28;20050;-36
2023/12/16 02:17:28;;;;;;;15.65;2.80;;;11.30;52.60;;;;;;4967095;28;20085;-36
2023/12/16 02:19:56;;;;;;;14.52;3.20;;;11.30;52.60;;;;;;4966881;28;20418;-45
2023/12/16 02:22:23;;;;;;;15.23;3.20;;;11.30;52.50;;;;;;4966226;28;20511;-41
2023/12/16 02:24:52;;;;;;;18.75;3.10;;;11.30;52.40;;;;;;4961250;28;20062;-43
2023/12/16 02:27:19;;;;;;;13.88;2.83;;;11.30;52.30;;;;;;4961746;28;20058;-49
2023/12/16 02:29:47;;;;;;;12.93;2.97;;;11.30;52.40;;;;;;4960397;28;20050;-49
2023/12/16 02:32:15;;;;;;;20.15;3.50;;;11.30;52.30;;;;;;4960505;28;20063;-46
2023/12/16 02:34:42;;;;;;;15.00;3.70;;;11.30;52.20;;;;;;4964906;28;20050;-43
2023/12/16 02:37:09;;;;;;;15.40;2.53;;;11.30;52.20;;;;;;4960527;28;20066;-47
2023/12/16 02:39:36;;;;;;;15.70;3.63;;;11.30;52.30;;;;;;4965660;28;20402;-46
2023/12/16 02:42:05;;;;;;;12.15;2.97;;;11.30;52.30;;;;;;4962795;28;20055;-46
2023/12/16 02:44:33;;;;;;;15.10;3.60;;;11.30;52.30;;;;;;4964293;28;20058;-48
2023/12/16 02:47:00;;;;;;;12.25;3.05;;;11.30;52.30;;;;;;4964543;28;20054;-46
2023/12/16 02:49:28;;;;;;;17.00;3.25;;;11.30;52.30;;;;;;4969064;28;20065;-49
2023/12/16 02:51:58;;;;;;;13.07;3.45;;;11.30;52.20;;;;;;4968748;28;20059;-48
2023/12/16 02:54:26;;;;;;;13.27;3.15;;;11.30;52.30;;;;;;4968127;28;20086;-45
2023/12/16 02:56:54;;;;;;;13.02;2.90;;;11.30;52.20;;;;;;4967264;28;20051;-45
2023/12/16 02:59:23;;;;;;;16.42;4.03;;;11.30;52.20;;;;;;4967157;28;20061;-47
2023/12/16 03:01:50;;;;;;;19.75;3.65;;;11.30;52.20;;;;;;4967673;28;20054;-46
2023/12/16 03:04:17;;;;;;;16.23;3.13;;;11.30;52.30;;;;;;4964898;28;20070;-48
2023/12/16 03:10:07;;;;;;;11.98;3.40;;;11.30;52.10;;;;;;4970485;28;20058;-47
2023/12/16 03:12:34;;;;;;;17.95;3.67;;;11.30;52.70;;;;;;4968758;28;20055;-47
2023/12/16 03:15:03;;;;;;;17.60;4.00;;;11.30;52.20;;;;;;4968389;28;20066;-49
2023/12/16 03:17:30;;;;;;;15.75;3.72;;;11.20;52.10;;;;;;4963165;28;20059;-48
2023/12/16 03:19:58;;;;;;;12.63;2.80;;;11.20;52.00;;;;;;4959445;28;20054;-48
2023/12/16 03:22:25;;;;;;;16.85;3.15;;;11.20;52.10;;;;;;4970499;28;20488;-47
2023/12/16 03:24:52;;;;;;;16.48;3.42;;;11.20;52.10;;;;;;4968829;28;20054;-49
2023/12/16 03:27:19;;;;;;;15.80;3.10;;;11.20;52.20;;;;;;4964417;28;20055;-44
2023/12/16 03:29:46;;;;;;;18.92;4.20;;;11.20;52.20;;;;;;4964949;28;20067;-49
2023/12/16 03:32:15;;;;;;;21.02;3.88;;;11.20;52.10;;;;;;4966189;28;20401;-45
2023/12/16 03:34:42;;;;;;;10.45;2.90;;;11.20;52.00;;;;;;4962485;28;20051;-47
2023/12/16 03:37:10;;;;;;;13.73;2.95;;;11.20;52.00;;;;;;4962925;28;20058;-45
2023/12/16 03:39:39;;;;;;;15.95;3.03;;;11.20;51.90;;;;;;4973752;28;20415;-49
2023/12/16 03:42:07;;;;;;;15.98;3.28;;;11.20;51.90;;;;;;4982110;28;20415;-49
2023/12/16 03:44:34;;;;;;;13.50;2.92;;;11.10;51.60;;;;;;4982031;28;20066;-49
2023/12/16 03:47:02;;;;;;;19.10;3.42;;;11.10;51.60;;;;;;4985538;28;20059;-46
2023/12/16 03:49:30;;;;;;;16.75;3.17;;;11.10;51.60;;;;;;4985109;28;20061;-51
2023/12/16 03:51:57;;;;;;;14.13;3.85;;;11.10;51.60;;;;;;4986389;28;20062;-49
2023/12/16 03:54:24;;;;;;;11.07;2.95;;;11.10;51.60;;;;;;4985067;28;20065;-45
2023/12/16 03:56:51;;;;;;;15.40;2.85;;;11.10;51.60;;;;;;4983585;28;20487;-50
2023/12/16 03:59:19;;;;;;;17.02;2.65;;;11.10;51.60;;;;;;4985584;28;20050;-49
2023/12/16 04:01:46;;;;;;;12.20;2.88;;;11.10;51.50;;;;;;4983912;28;20051;-46
2023/12/16 04:04:13;;;;;;;16.25;2.92;;;11.10;51.50;;;;;;4985767;28;20054;-46
2023/12/16 04:06:45;;;;;;;14.68;2.70;;;11.10;51.40;;;;;;4987827;28;20529;-45
2023/12/16 04:09:12;;;;;;;16.88;4.88;;;11.10;51.30;;;;;;4986322;28;20077;-46
2023/12/16 04:11:46;;;;;;;11.15;3.28;;;11.10;51.30;;;;;;4985909;28;20590;-46
2023/12/16 04:14:14;;;;;;;10.05;3.10;;;11.10;51.30;;;;;;4989020;28;20054;-48
2023/12/16 04:16:41;;;;;;;19.02;3.40;;;11.10;51.30;;;;;;4987556;28;20056;-46
2023/12/16 04:19:08;;;;;;;12.02;3.08;;;11.10;51.20;;;;;;4987292;28;20077;-41
2023/12/16 04:21:37;;;;;;;17.77;3.28;;;11.10;51.30;;;;;;4989073;28;20525;-46
2023/12/16 04:24:06;;;;;;;13.05;2.85;;;11.10;51.30;;;;;;4985660;28;20058;-44
2023/12/16 04:26:36;;;;;;;18.55;2.92;;;11.10;51.30;;;;;;4983166;28;20069;-45
2023/12/16 04:29:03;;;;;;;21.67;4.00;;;11.10;51.40;;;;;;4983545;28;20058;-45
2023/12/16 04:31:30;;;;;;;14.05;3.20;;;11.10;51.30;;;;;;4984296;28;20065;-46
2023/12/16 04:33:57;;;;;;;13.18;2.92;;;11.10;51.40;;;;;;4986942;28;20054;-48
2023/12/16 04:36:25;;;;;;;12.43;3.53;;;11.10;51.40;;;;;;4982901;28;20058;-47
2023/12/16 04:38:52;;;;;;;11.60;2.88;;;11.10;51.40;;;;;;4986039;28;20054;-37
2023/12/16 04:41:21;;;;;;;12.82;3.05;;;11.20;51.40;;;;;;4986592;28;20054;-37
2023/12/16 04:43:48;;;;;;;12.57;3.05;;;11.20;51.30;;;;;;4985391;28;20081;-36
2023/12/16 04:46:20;;;;;;;10.45;2.63;;;11.10;51.20;;;;;;4984513;28;20061;-37
2023/12/16 04:48:48;;;;;;;8.77;2.90;;;11.10;51.30;;;;;;4988120;28;20054;-36
2023/12/16 04:51:15;;;;;;;12.73;3.42;;;11.10;51.20;;;;;;4987008;28;20046;-37
2023/12/16 04:53:42;;;;;;;11.88;2.85;;;11.20;51.20;;;;;;4985429;28;20065;-36
2023/12/16 04:56:10;;;;;;;10.90;2.85;;;11.10;51.30;;;;;;4984659;28;20505;-37
2023/12/16 04:58:39;;;;;;;14.25;2.53;;;11.20;51.40;;;;;;4982471;28;20058;-36
2023/12/16 05:01:06;;;;;;;18.88;3.65;;;11.20;51.40;;;;;;4984088;28;20061;-36
2023/12/16 05:03:33;;;;;;;13.45;3.28;;;11.20;51.20;;;;;;4985602;28;20910;-36
2023/12/16 05:06:01;;;;;;;10.27;2.90;;;11.20;51.20;;;;;;4984321;28;20431;-36
2023/12/16 05:08:28;;;;;;;16.65;3.35;;;11.20;51.10;;;;;;4984350;28;20507;-37
2023/12/16 05:10:55;;;;;;;10.93;2.83;;;11.20;51.10;;;;;;4986337;28;20058;-37
2023/12/16 05:13:22;;;;;;;13.75;3.10;;;11.20;51.10;;;;;;4985454;28;20060;-37
2023/12/16 05:15:51;;;;;;;9.30;2.75;;;11.10;51.00;;;;;;4983619;28;20513;-36
2023/12/16 05:18:18;;;;;;;11.95;2.78;;;11.10;51.00;;;;;;4981589;28;20065;-37
2023/12/16 05:20:46;;;;;;;16.20;3.05;;;11.10;51.50;;;;;;4984891;28;20143;-37
2023/12/16 05:23:14;;;;;;;15.10;3.00;;;11.10;51.00;;;;;;4985589;28;20061;-37
2023/12/16 05:25:41;;;;;;;13.35;2.63;;;11.10;51.00;;;;;;4982505;28;20054;-37
2023/12/16 05:28:09;;;;;;;12.57;2.40;;;11.10;51.00;;;;;;4983369;28;20054;-36
2023/12/16 05:30:36;;;;;;;12.65;2.55;;;11.10;51.10;;;;;;4985521;28;20065;-37
2023/12/16 05:33:05;;;;;;;15.25;2.70;;;11.10;51.00;;;;;;4985059;28;20054;-37
2023/12/16 05:35:32;;;;;;;11.82;2.65;;;11.10;50.90;;;;;;4986867;28;20074;-37
2023/12/16 05:37:59;;;;;;;14.25;3.05;;;11.10;51.00;;;;;;4985246;28;20505;-37
2023/12/16 05:40:26;;;;;;;16.63;3.53;;;11.10;51.00;;;;;;4986320;28;20050;-37
2023/12/16 05:42:54;;;;;;;12.07;2.05;;;11.10;51.00;;;;;;4982772;28;20058;-37
2023/12/16 05:45:21;;;;;;;13.77;2.05;;;11.10;51.00;;;;;;4983310;28;20601;-37
2023/12/16 05:47:48;;;;;;;10.82;2.80;;;11.10;51.00;;;;;;4984375;28;20058;-37
2023/12/16 05:50:17;;;;;;;11.23;2.53;;;11.10;51.10;;;;;;4985777;28;20068;-49
2023/12/16 05:52:44;;;;;;;9.43;2.40;;;11.10;51.00;;;;;;4986727;28;20042;-50
2023/12/16 05:55:11;;;;;;;17.33;2.35;;;11.10;51.00;;;;;;4985075;28;20073;-42
2023/12/16 05:57:38;;;;;;;9.20;2.45;;;11.10;51.10;;;;;;4978889;28;20058;-46
2023/12/16 06:00:08;;;;;;;14.48;2.67;;;11.10;51.10;;;;;;4985010;28;20050;-46
2023/12/16 06:02:35;;;;;;;10.38;2.30;;;11.10;51.10;;;;;;4987165;28;20038;-48
2023/12/16 06:05:03;;;;;;;14.85;3.58;;;11.20;51.10;;;;;;4985394;28;20054;-50
2023/12/16 06:07:32;;;;;;;10.52;2.30;;;11.20;51.10;;;;;;4981354;28;20054;-45
2023/12/16 06:09:59;;;;;;;9.63;2.72;;;11.20;51.20;;;;;;4983125;28;20065;-45
2023/12/16 06:12:26;;;;;;;16.08;2.83;;;11.20;51.20;;;;;;4983756;28;20050;-50
2023/12/16 06:14:54;;;;;;;9.95;2.40;;;11.20;51.20;;;;;;4986050;28;20047;-40
2023/12/16 06:17:21;;;;;;;11.38;2.58;;;11.20;51.20;;;;;;4982464;28;20141;-50
2023/12/16 06:19:48;;;;;;;14.73;2.65;;;11.20;51.20;;;;;;4985277;28;20053;-47
2023/12/16 06:22:15;;;;;;;11.52;2.35;;;11.20;51.20;;;;;;4980376;28;20064;-44
2023/12/16 06:24:44;;;;;;;12.30;2.75;;;11.20;51.30;;;;;;4983300;28;20057;-49
2023/12/16 06:27:11;;;;;;;11.32;2.28;;;11.20;51.20;;;;;;4985165;28;20058;-49
2023/12/16 06:29:40;;;;;;;8.50;2.42;;;11.20;51.30;;;;;;4984540;28;20058;-45
2023/12/16 06:32:07;;;;;;;12.93;2.33;;;11.20;51.20;;;;;;4984707;28;20050;-49
2023/12/16 06:34:34;;;;;;;10.27;2.47;;;11.20;51.30;;;;;;4985835;28;20054;-45
2023/12/16 06:37:02;;;;;;;16.63;2.55;;;11.20;51.30;;;;;;4983193;28;20057;-47
2023/12/16 06:39:29;;;;;;;12.18;2.47;;;11.20;51.30;;;;;;4985390;28;20064;-48
2023/12/16 06:41:57;;;;;;;13.93;2.85;;;11.20;51.40;;;;;;4983344;28;20070;-42
2023/12/16 06:44:25;;;;;;;15.50;3.00;;;11.20;51.40;;;;;;4983343;28;20069;-44
2023/12/16 06:46:52;;;;;;;11.30;2.75;;;11.20;51.40;;;;;;4981174;28;20065;-46
2023/12/16 06:49:19;;;;;;;13.00;2.90;;;11.20;51.40;;;;;;4987177;28;20054;-43
2023/12/16 06:51:46;;;;;;;17.33;3.08;;;11.20;51.40;;;;;;4985983;28;20471;-51
2023/12/16 06:54:16;;;;;;;13.15;2.70;;;11.20;51.40;;;;;;4982194;28;20087;-40
2023/12/16 06:56:43;;;;;;;17.58;3.45;;;11.20;51.30;;;;;;4981793;28;20058;-43
2023/12/16 06:59:13;;;;;;;17.25;3.75;;;11.20;51.30;;;;;;4983545;28;20057;-45
2023/12/16 07:01:40;;;;;;;13.60;3.10;;;11.20;51.30;;;;;;4981541;28;20050;-46
2023/12/16 07:04:07;;;;;;;12.20;3.05;;;11.20;51.40;;;;;;4984994;28;20050;-46
2023/12/16 07:06:35;;;;;;;18.48;3.08;;;11.10;51.30;;;;;;4984989;28;20050;-45
2023/12/16 07:09:02;;;;;;;14.75;3.00;;;11.10;51.40;;;;;;4981285;28;20054;-48
2023/12/16 07:11:29;;;;;;;14.40;3.00;;;11.10;51.40;;;;;;4983954;28;20057;-49
2023/12/16 07:13:56;;;;;;;12.65;2.88;;;11.10;51.50;;;;;;4980776;28;20144;-46
2023/12/16 07:16:25;;;;;;;11.10;2.90;;;11.00;51.40;;;;;;4984211;28;20054;-44
2023/12/16 07:18:52;;;;;;;14.32;3.00;;;11.00;51.60;;;;;;4985923;28;20050;-49
2023/12/16 07:21:19;;;;;;;15.77;3.22;;;11.00;51.70;;;;;;4987153;28;20054;-51
2023/12/16 07:23:47;;;;;;;22.38;5.35;;;11.00;51.70;;;;;;4986103;28;20080;-50
2023/12/16 07:26:14;;;;;;;17.35;4.80;;;11.00;51.80;;;;;;4983300;28;20057;-50
2023/12/16 07:28:41;;;;;;;20.30;5.30;;;10.90;51.80;;;;;;4983893;28;20514;-43
2023/12/16 07:31:07;;;;;;;12.98;3.38;;;11.00;51.90;;;;;;4984911;28;20062;-49
2023/12/16 07:33:37;;;;;;;14.35;4.32;;;10.90;51.90;;;;;;4985273;28;20096;-46
2023/12/16 07:36:04;;;;;;;15.68;3.53;;;10.90;52.00;;;;;;4985562;28;20428;-46
2023/12/16 07:38:31;;;;;;;12.15;3.50;;;11.00;52.00;;;;;;4982733;28;20057;-44
2023/12/16 07:40:59;;;;;;;11.52;3.35;;;10.90;52.00;;;;;;4987044;28;20050;-50
2023/12/16 07:43:26;;;;;;;10.55;3.55;;;10.90;52.00;;;;;;4985820;28;20061;-47
2023/12/16 07:45:53;;;;;;;15.30;4.05;;;10.90;52.10;;;;;;4987172;28;20050;-41
2023/12/16 07:48:20;;;;;;;14.52;3.97;;;10.90;52.10;;;;;;4985808;28;20295;-49
2023/12/16 07:50:50;;;;;;;13.20;3.53;;;11.00;52.20;;;;;;4987787;28;20521;-47
2023/12/16 07:53:17;;;;;;;14.77;2.85;;;10.90;52.10;;;;;;4986531;28;20054;-47
2023/12/16 07:55:44;;;;;;;11.68;3.00;;;11.00;52.10;;;;;;4987402;28;20394;-42
2023/12/16 07:58:14;;;;;;;15.68;3.40;;;11.00;52.30;;;;;;4986690;28;20050;-49
2023/12/16 08:00:41;;;;;;;10.63;3.00;;;11.00;52.30;;;;;;4982306;28;20069;-44
2023/12/16 08:03:08;;;;;;;15.80;3.17;;;11.00;52.30;;;;;;4982863;28;20517;-48
2023/12/16 08:05:35;;;;;;;12.25;4.07;;;11.00;52.30;;;;;;4985637;28;20482;-46
2023/12/16 08:08:04;;;;;;;15.52;3.72;;;11.00;52.30;;;;;;4983134;28;20491;-45
2023/12/16 08:10:34;;;;;;;20.40;4.03;;;11.00;52.30;;;;;;4988689;28;20048;-47
2023/12/16 08:13:01;;;;;;;15.25;3.78;;;11.10;52.40;;;;;;4983691;28;20057;-48
2023/12/16 08:15:28;;;;;;;11.20;3.90;;;11.00;52.40;;;;;;4985664;28;20423;-50
2023/12/16 08:17:55;;;;;;;11.00;3.38;;;11.00;52.40;;;;;;4986669;28;20058;-47
2023/12/16 08:20:22;;;;;;;11.43;2.80;;;11.10;52.50;;;;;;4986869;28;20062;-51
2023/12/16 08:22:49;;;;;;;13.00;4.10;;;11.10;52.60;;;;;;4985712;28;20058;-43
2023/12/16 08:25:18;;;;;;;13.25;3.78;;;11.10;52.70;;;;;;4984868;28;20061;-49
2023/12/16 08:27:45;;;;;;;13.70;3.85;;;11.10;52.80;;;;;;4988470;28;20077;-46
2023/12/16 08:30:14;;;;;;;7.82;2.67;;;11.20;53.00;;;;;;4990701;28;20509;-44
2023/12/16 08:32:41;;;;;;;16.30;3.15;;;11.20;53.20;;;;;;4989335;28;20046;-45
2023/12/16 08:35:09;;;;;;;18.27;4.88;;;11.20;53.20;;;;;;4988658;28;20057;-48
2023/12/16 08:37:36;;;;;;;15.68;4.97;;;11.30;53.00;;;;;;4982812;28;20414;-45
2023/12/16 08:40:04;;;;;;;16.00;5.40;;;11.30;52.80;;;;;;4986305;28;20420;-41
2023/12/16 08:42:33;;;;;;;16.38;5.93;;;11.30;52.90;;;;;;4984869;28;20490;-47
2023/12/16 08:45:00;;;;;;;20.15;5.13;;;11.40;52.90;;;;;;4985467;28;20073;-47
2023/12/16 08:47:28;;;;;;;23.00;6.50;;;11.40;52.90;;;;;;4984105;28;20061;-42
2023/12/16 08:49:55;;;;;;;13.45;3.95;;;11.40;52.90;;;;;;4987437;28;20054;-43
2023/12/16 08:52:22;;;;;;;12.55;3.60;;;11.50;53.00;;;;;;4984134;28;20426;-47
2023/12/16 08:54:49;;;;;;;15.80;3.90;;;11.50;52.80;;;;;;4986351;28;20049;-46
2023/12/16 08:57:16;;;;;;;13.02;3.33;;;11.50;52.80;;;;;;4989424;28;20054;-50
2023/12/16 08:59:45;;;;;;;12.55;3.45;;;11.50;52.70;;;;;;4993310;28;20302;-46
2023/12/16 09:02:12;;;;;;;12.10;3.55;;;11.60;52.70;;;;;;4995980;28;20054;-48
2023/12/16 09:04:39;;;;;;;15.07;3.00;;;11.60;52.70;;;;;;4991288;28;20058;-49
2023/12/16 09:07:06;;;;;;;14.75;3.13;;;11.60;52.50;;;;;;4989222;28;20542;-50
2023/12/16 09:09:34;;;;;;;18.90;3.00;;;11.60;52.60;;;;;;4984666;28;20058;-47
2023/12/16 09:12:01;;;;;;;12.00;2.80;;;11.60;52.40;;;;;;4985745;28;20521;-44
2023/12/16 09:14:28;;;;;;;18.48;2.95;;;11.60;52.30;;;;;;4991466;28;20456;-48
2023/12/16 09:16:57;;;;;;;15.80;2.88;;;11.70;52.50;;;;;;4991108;28;20051;-45
2023/12/16 09:19:25;;;;;;;13.43;2.47;;;11.70;52.50;;;;;;4990414;28;20050;-43
2023/12/16 09:21:52;;;;;;;16.63;3.40;;;11.70;52.60;;;;;;4977954;28;20055;-47
2023/12/16 09:24:20;;;;;;;14.48;3.10;;;11.70;52.50;;;;;;4987656;28;20057;-45
2023/12/16 09:26:48;;;;;;;14.35;2.70;;;11.80;52.50;;;;;;4985340;28;20058;-48
2023/12/16 09:29:15;;;;;;;14.55;2.70;;;11.80;52.50;;;;;;4984080;28;20080;-46
2023/12/16 09:31:43;;;;;;;13.30;2.83;;;11.80;52.60;;;;;;4988065;28;20065;-45
2023/12/16 09:34:12;;;;;;;15.13;2.50;;;11.80;52.40;;;;;;4982586;28;20061;-46
2023/12/16 09:36:39;;;;;;;14.10;2.60;;;11.90;52.40;;;;;;4984950;28;20061;-49
2023/12/16 09:39:09;;;;;;;12.13;3.13;;;11.90;52.20;;;;;;4985318;28;20050;-49
2023/12/16 09:41:44;;;;;;;17.52;3.15;;;11.90;52.30;;;;;;4987047;28;20050;-43
2023/12/16 09:44:15;;;;;;;17.50;3.22;;;12.00;52.10;;;;;;4984449;28;20055;-46
2023/12/16 09:46:44;;;;;;;11.10;3.00;;;12.00;51.80;;;;;;4985588;28;20058;-46
2023/12/16 09:49:14;;;;;;;8.90;2.42;;;12.00;51.90;;;;;;4982216;28;20057;-47
2023/12/16 09:51:42;;;;;;;16.58;4.88;;;12.10;52.10;;;;;;4986464;28;20061;-48
2023/12/16 09:54:09;;;;;;;14.45;2.92;;;12.10;52.20;;;;;;4985734;28;20047;-48
2023/12/16 09:56:39;;;;;;;14.73;3.45;;;12.10;52.00;;;;;;4980037;28;20054;-50
2023/12/16 09:59:07;;;;;;;12.90;3.08;;;12.20;52.10;;;;;;4981726;28;20051;-45
2023/12/16 10:01:34;;;;;;;13.55;2.50;;;12.20;52.00;;;;;;4986508;28;20061;-46
2023/12/16 10:04:02;;;;;;;16.98;2.67;;;12.20;51.90;;;;;;4985665;28;20066;-46
2023/12/16 10:06:31;;;;;;;19.42;3.22;;;12.20;51.90;;;;;;4981498;28;20054;-50
2023/12/16 10:08:58;;;;;;;10.93;3.00;;;12.20;51.80;;;;;;4981478;28;20050;-45
2023/12/16 10:11:25;;;;;;;13.75;2.78;;;12.20;51.40;;;;;;4984486;28;20054;-46
2023/12/16 10:13:56;;;;;;;18.13;2.78;;;12.30;51.40;;;;;;4982847;28;20069;-41
2023/12/16 10:16:24;;;;;;;15.05;3.13;;;12.20;51.40;;;;;;4983492;28;20038;-39
2023/12/16 10:18:53;;;;;;;15.07;3.00;;;12.30;51.40;;;;;;4976420;28;20055;-42
2023/12/16 10:21:25;;;;;;;15.70;3.22;;;12.30;51.40;;;;;;4981975;28;20046;-48
2023/12/16 10:23:56;;;;;;;12.13;2.75;;;12.30;51.30;;;;;;4984061;28;20042;-46
2023/12/16 10:26:23;;;;;;;20.35;2.45;;;12.30;51.10;;;;;;4983539;28;20050;-42
2023/12/16 10:28:53;;;;;;;13.95;2.72;;;12.30;51.20;;;;;;4985216;28;20061;-47
2023/12/16 10:31:21;;;;;;;16.15;3.28;;;12.30;51.10;;;;;;4979425;28;20069;-48
2023/12/16 10:33:48;;;;;;;15.30;3.35;;;12.20;51.00;;;;;;4981399;28;20053;-49
2023/12/16 10:36:21;;;;;;;11.88;3.05;;;12.20;51.10;;;;;;4979795;28;20057;-44
2023/12/16 10:38:48;;;;;;;16.65;3.28;;;12.20;51.20;;;;;;4987650;28;20050;-51
2023/12/16 10:41:21;;;;;;;16.92;3.03;;;12.20;51.30;;;;;;4983747;28;20059;-37
2023/12/16 10:43:53;;;;;;;11.50;2.67;;;12.20;51.40;;;;;;4985489;28;20065;-36
2023/12/16 10:46:22;;;;;;;13.48;2.97;;;12.20;51.40;;;;;;4982577;28;20054;-36
2023/12/16 10:48:51;;;;;;;14.35;3.03;;;12.20;51.60;;;;;;4986070;28;20050;-36
2023/12/16 10:51:21;;;;;;;10.05;2.72;;;12.20;51.60;;;;;;4981948;28;20053;-38
2023/12/16 10:53:57;;;;;;;14.30;2.97;;;12.20;51.70;;;;;;4983487;28;20054;-37
2023/12/16 10:56:30;;;;;;;17.85;3.13;;;12.30;51.60;;;;;;4982822;28;20455;-37
2023/12/16 10:59:05;;;;;;;15.50;2.95;;;12.30;51.70;;;;;;4985944;28;20393;-36
2023/12/16 11:01:35;;;;;;;12.68;2.65;;;12.40;51.80;;;;;;4983571;28;20066;-37
2023/12/16 11:04:10;;;;;;;15.13;2.67;;;12.40;51.80;;;;;;4984595;28;20058;-36
2023/12/16 11:06:44;;;;;;;13.05;2.58;;;12.40;51.60;;;;;;4983655;28;20054;-37
2023/12/16 11:09:12;;;;;;;16.70;2.85;;;12.50;51.80;;;;;;4979585;28;20054;-38
2023/12/16 11:11:42;;;;;;;19.48;2.92;;;12.50;51.70;;;;;;4985494;28;20050;-37
2023/12/16 11:14:10;;;;;;;19.17;3.00;;;12.60;51.60;;;;;;4987107;28;20042;-37
2023/12/16 11:16:44;;;;;;;11.50;2.95;;;12.60;51.50;;;;;;4987636;28;20062;-37
2023/12/16 11:19:12;;;;;;;;;;;12.60;51.50;;;;;;4990357;28;20054;-37
2023/12/16 11:21:43;;;;;;;17.85;2.88;;;12.70;51.70;;;;;;4989501;28;19922;-37
2023/12/16 11:24:11;;;;;;;20.05;3.17;;;12.80;51.30;;;;;;4984538;28;20514;-36
2023/12/16 11:26:39;;;;;;;10.77;2.72;;;12.80;51.20;;;;;;4987256;28;20061;-37
2023/12/16 11:29:07;;;;;;;21.15;3.78;;;12.80;51.20;;;;;;4989397;28;20058;-36
2023/12/16 11:31:36;;;;;;;14.32;3.17;;;12.80;51.10;;;;;;4985712;28;20050;-37
2023/12/16 11:34:05;;;;;;;13.07;2.83;;;12.90;51.20;;;;;;4988946;28;20545;-37
2023/12/16 11:36:48;;;;;;;14.02;2.88;;;12.90;51.40;;;;;;4983663;28;20050;-37
2023/12/16 11:39:38;;;;;;;15.15;2.47;;;12.90;51.50;;;;;;4982865;28;20065;-36
2023/12/16 11:42:06;;;;;;;17.17;3.33;;;12.90;51.50;;;;;;4985427;28;20054;-37
2023/12/16 11:44:53;;;;;;;8.80;2.55;;;13.00;51.60;;;;;;4984307;28;20046;-37
2023/12/16 11:47:25;;;;;;;14.80;2.85;;;13.00;51.60;;;;;;4982915;28;20055;-37
2023/12/16 11:49:55;;;;;;;13.70;3.42;;;13.10;51.60;;;;;;4988365;28;20046;-36
2023/12/16 11:52:23;;;;;;;15.00;3.47;;;13.10;51.60;;;;;;4986863;28;20069;-41
2023/12/16 11:54:52;;;;;;;18.58;3.10;;;13.20;51.50;;;;;;4986395;28;20047;-49
2023/12/16 11:57:20;;;;;;;15.05;3.13;;;13.20;51.40;;;;;;4985688;28;20054;-45
2023/12/16 11:59:48;;;;;;;21.88;4.43;;;13.20;51.20;;;;;;4988353;28;20054;-45
2023/12/16 12:02:17;;;;;;;22.73;3.03;;;13.20;51.20;;;;;;4985410;28;20593;-49
2023/12/16 12:04:44;;;;;;;13.32;2.80;;;13.30;51.10;;;;;;4984782;28;20051;-48
2023/12/16 12:07:13;;;;;;;18.50;3.25;;;13.30;51.20;;;;;;4987047;28;20046;-42
2023/12/16 12:09:41;;;;;;;14.15;3.72;;;13.30;51.10;;;;;;4983551;28;20466;-49
2023/12/16 12:12:09;;;;;;;17.77;4.40;;;13.30;51.10;;;;;;4985143;28;20054;-45
2023/12/16 12:14:38;;;;;;;19.80;3.58;;;13.40;51.20;;;;;;4986781;28;20503;-46
2023/12/16 12:17:06;;;;;;;12.20;2.85;;;13.40;51.30;;;;;;4986705;28;20490;-43
2023/12/16 12:19:34;;;;;;;13.23;3.25;;;13.40;51.30;;;;;;4984126;28;20058;-41
2023/12/16 12:22:02;;;;;;;15.82;3.05;;;13.40;51.20;;;;;;4984870;28;20491;-42
2023/12/16 12:24:29;;;;;;;19.42;3.33;;;13.50;51.30;;;;;;4987943;28;20533;-50
2023/12/16 12:26:56;;;;;;;20.88;3.17;;;13.50;51.40;;;;;;4986484;28;20050;-48
2023/12/16 12:29:23;;;;;;;14.00;3.15;;;13.50;51.10;;;;;;4989434;28;20057;-42
2023/12/16 12:31:52;;;;;;;9.85;2.63;;;13.50;51.10;;;;;;4989773;28;20058;-49
2023/12/16 12:34:19;;;;;;;18.45;3.75;;;13.60;51.10;;;;;;4989830;28;20054;-44
2023/12/16 12:36:54;;;;;;;11.77;3.45;;;13.60;51.10;;;;;;4989193;28;20059;-46
2023/12/16 12:39:21;;;;;;;17.35;3.75;;;13.60;51.00;;;;;;4989634;28;20073;-50
2023/12/16 12:42:00;;;;;;;32.83;3.78;;;13.60;51.00;;;;;;4987691;28;20062;-47
2023/12/16 12:44:27;;;;;;;18.60;3.88;;;13.60;51.60;;;;;;4987114;28;20054;-49
2023/12/16 12:46:55;;;;;;;13.30;3.40;;;13.60;51.00;;;;;;4988252;28;20383;-45